createdAt,value
2022-11-22T00:01:40.842Z,6.57
2022-11-22T00:04:07.538Z,6.66
2022-11-22T00:06:34.359Z,6.13
2022-11-22T00:09:01.020Z,6.05
2022-11-22T00:11:27.766Z,5.62
2022-11-22T00:13:54.516Z,6.11
2022-11-22T00:16:21.192Z,5.87
2022-11-22T00:18:47.897Z,5.80
2022-11-22T00:21:14.517Z,5.82
2022-11-22T00:23:41.244Z,5.24
2022-11-22T00:26:12.285Z,5.36
2022-11-22T00:28:39.908Z,5.21
2022-11-22T00:31:06.525Z,5.66
2022-11-22T00:33:33.608Z,5.97
2022-11-22T00:36:00.628Z,6.39
2022-11-22T00:38:27.396Z,6.47
2022-11-22T00:40:54.577Z,6.14
2022-11-22T00:43:21.486Z,6.47
2022-11-22T00:45:48.257Z,5.92
2022-11-22T00:48:15.878Z,6.36
2022-11-22T00:50:42.686Z,6.47
2022-11-22T00:53:09.787Z,5.97
2022-11-22T00:55:36.481Z,6.04
2022-11-22T00:58:03.497Z,5.89
2022-11-22T01:00:30.194Z,5.97
2022-11-22T01:02:56.918Z,6.28
2022-11-22T01:05:23.707Z,5.66
2022-11-22T01:07:50.482Z,5.82
2022-11-22T01:10:17.143Z,6.28
2022-11-22T01:12:43.831Z,5.47
2022-11-22T01:15:11.159Z,5.91
2022-11-22T01:17:37.810Z,5.56
2022-11-22T01:20:05.025Z,5.07
2022-11-22T01:22:31.704Z,4.93
2022-11-22T01:24:58.455Z,5.28
2022-11-22T01:27:25.074Z,5.11
2022-11-22T01:29:51.774Z,5.55
2022-11-22T01:32:18.466Z,4.86
2022-11-22T01:34:45.168Z,4.96
2022-11-22T01:37:11.785Z,5.18
2022-11-22T01:39:39.922Z,4.90
2022-11-22T01:42:06.656Z,5.13
2022-11-22T01:44:33.840Z,4.83
2022-11-22T01:47:06.466Z,5.07
2022-11-22T01:49:40.729Z,5.22
2022-11-22T01:52:09.064Z,5.17
2022-11-22T01:54:38.692Z,4.91
2022-11-22T01:57:08.328Z,4.73
2022-11-22T01:59:37.334Z,4.61
2022-11-22T02:02:04.563Z,4.89
2022-11-22T02:04:32.751Z,4.91
2022-11-22T02:07:07.557Z,4.96
2022-11-22T02:09:34.713Z,4.92
2022-11-22T02:12:02.910Z,4.72
2022-11-22T02:14:30.327Z,5.12
2022-11-22T02:16:57.275Z,4.96
2022-11-22T02:19:30.799Z,5.11
2022-11-22T02:22:00.842Z,5.60
2022-11-22T02:24:32.072Z,5.88
2022-11-22T02:26:58.720Z,6.29
2022-11-22T02:29:25.677Z,6.63
2022-11-22T02:31:52.276Z,6.80
2022-11-22T02:34:19.009Z,6.94
2022-11-22T02:36:50.596Z,6.69
2022-11-22T02:39:19.436Z,7.07
2022-11-22T02:41:46.289Z,7.12
2022-11-22T02:44:13.742Z,6.86
2022-11-22T02:46:48.317Z,6.89
2022-11-22T02:49:16.688Z,5.70
2022-11-22T02:51:43.338Z,6.50
2022-11-22T02:54:10.135Z,7.00
2022-11-22T02:56:36.847Z,7.14
2022-11-22T02:59:03.505Z,7.43
2022-11-22T03:01:30.628Z,7.43
2022-11-22T03:03:57.308Z,7.64
2022-11-22T03:06:24.085Z,7.65
2022-11-22T03:08:55.905Z,7.34
2022-11-22T03:11:23.368Z,6.54
2022-11-22T03:13:50.050Z,6.14
2022-11-22T03:16:16.700Z,6.10
2022-11-22T03:18:43.382Z,6.59
2022-11-22T03:21:10.691Z,6.01
2022-11-22T03:23:37.629Z,5.70
2022-11-22T03:26:10.959Z,5.75
2022-11-22T03:28:37.663Z,5.40
2022-11-22T03:31:07.644Z,5.61
2022-11-22T03:33:34.990Z,5.45
2022-11-22T03:36:01.726Z,5.65
2022-11-22T03:38:28.566Z,5.44
2022-11-22T03:40:55.579Z,5.58
2022-11-22T03:43:22.521Z,5.29
2022-11-22T03:46:14.212Z,5.10
2022-11-22T03:48:41.499Z,5.45
2022-11-22T03:51:08.437Z,5.53
2022-11-22T03:53:35.167Z,5.09
2022-11-22T03:56:03.226Z,5.44
2022-11-22T03:58:30.168Z,5.42
2022-11-22T04:01:01.824Z,5.57
2022-11-22T04:03:31.342Z,5.37
2022-11-22T04:06:03.888Z,4.86
2022-11-22T04:08:30.718Z,5.33
2022-11-22T04:11:01.640Z,5.43
2022-11-22T04:13:48.401Z,5.19
2022-11-22T04:16:19.578Z,5.29
2022-11-22T04:18:46.337Z,4.99
2022-11-22T04:21:36.758Z,5.54
2022-11-22T04:24:28.348Z,5.61
2022-11-22T04:26:55.446Z,5.85
2022-11-22T04:29:22.504Z,5.91
2022-11-22T04:32:08.332Z,6.03
2022-11-22T04:34:35.095Z,5.63
2022-11-22T04:37:01.924Z,5.74
2022-11-22T04:39:29.148Z,6.07
2022-11-22T04:42:15.502Z,6.18
2022-11-22T04:44:42.924Z,5.79
2022-11-22T04:47:10.185Z,5.73
2022-11-22T04:49:37.059Z,5.90
2022-11-22T04:52:22.646Z,5.58
2022-11-22T04:54:49.315Z,5.33
2022-11-22T04:57:16.135Z,5.42
2022-11-22T04:59:42.820Z,5.29
2022-11-22T05:02:09.581Z,5.14
2022-11-22T05:04:36.481Z,4.95
2022-11-22T05:07:03.400Z,4.89
2022-11-22T05:09:30.415Z,5.23
2022-11-22T05:11:57.434Z,4.92
2022-11-22T05:14:24.125Z,5.39
2022-11-22T05:16:50.842Z,5.55
2022-11-22T05:19:17.547Z,5.85
2022-11-22T05:21:44.216Z,5.90
2022-11-22T05:24:10.948Z,6.24
2022-11-22T05:26:37.703Z,5.93
2022-11-22T05:29:08.754Z,5.82
2022-11-22T05:31:36.469Z,5.79
2022-11-22T05:34:04.114Z,5.95
2022-11-22T05:36:32.061Z,6.13
2022-11-22T05:39:08.394Z,5.75
2022-11-22T05:41:56.024Z,5.51
2022-11-22T05:44:24.208Z,5.46
2022-11-22T05:46:50.880Z,5.74
2022-11-22T05:49:17.821Z,5.28
2022-11-22T05:51:44.937Z,5.75
2022-11-22T05:54:11.907Z,5.31
2022-11-22T05:56:38.802Z,6.08
2022-11-22T05:59:05.720Z,6.09
2022-11-22T06:01:32.394Z,6.30
2022-11-22T06:03:59.049Z,5.91
2022-11-22T06:06:25.867Z,5.98
2022-11-22T06:08:52.576Z,5.90
2022-11-22T06:11:19.226Z,5.99
2022-11-22T06:13:46.899Z,6.05
2022-11-22T06:16:14.011Z,5.43
2022-11-22T06:18:40.799Z,5.98
2022-11-22T06:21:26.058Z,5.82
2022-11-22T06:23:56.423Z,5.81
2022-11-22T06:26:23.948Z,5.82
2022-11-22T06:28:51.257Z,5.76
2022-11-22T06:31:38.035Z,5.11
2022-11-22T06:34:25.947Z,5.17
2022-11-22T06:37:14.874Z,5.38
2022-11-22T06:39:47.030Z,4.87
2022-11-22T06:42:13.990Z,4.94
2022-11-22T06:44:40.777Z,5.20
2022-11-22T06:47:07.911Z,5.36
2022-11-22T06:49:35.673Z,5.05
2022-11-22T06:52:02.632Z,5.09
2022-11-22T06:54:33.931Z,4.98
2022-11-22T06:57:00.909Z,5.24
2022-11-22T06:59:28.310Z,5.11
2022-11-22T07:02:02.930Z,5.03
2022-11-22T07:04:33.503Z,5.35
2022-11-22T07:07:00.318Z,5.51
2022-11-22T07:09:40.680Z,5.46
2022-11-22T07:12:07.908Z,5.10
2022-11-22T07:14:34.630Z,5.02
2022-11-22T07:17:01.426Z,5.35
2022-11-22T07:19:36.662Z,5.06
2022-11-22T07:22:03.425Z,5.03
2022-11-22T07:24:30.692Z,5.02
2022-11-22T07:26:57.464Z,5.09
2022-11-22T07:29:25.362Z,5.27
2022-11-22T07:31:56.176Z,4.95
2022-11-22T07:34:26.224Z,5.41
2022-11-22T07:37:12.957Z,5.70
2022-11-22T07:39:41.926Z,5.52
2022-11-22T07:42:08.744Z,5.38
2022-11-22T07:44:35.865Z,5.52
2022-11-22T07:47:03.408Z,5.80
2022-11-22T07:49:34.463Z,5.76
2022-11-22T07:52:01.327Z,5.53
2022-11-22T07:54:33.578Z,6.10
2022-11-22T07:57:00.351Z,5.98
2022-11-22T07:59:27.884Z,6.32
2022-11-22T08:01:55.700Z,6.28
2022-11-22T08:04:22.637Z,6.46
2022-11-22T08:06:49.290Z,6.66
2022-11-22T08:09:15.968Z,6.74
2022-11-22T08:11:42.632Z,6.96
2022-11-22T08:14:09.320Z,7.03
2022-11-22T08:16:35.973Z,7.06
2022-11-22T08:19:02.765Z,7.36
2022-11-22T08:21:29.964Z,7.21
2022-11-22T08:23:59.888Z,7.23
2022-11-22T08:26:26.948Z,7.58
2022-11-22T08:28:54.280Z,7.34
2022-11-22T08:31:21.101Z,7.42
2022-11-22T08:33:48.725Z,7.69
2022-11-22T08:36:15.651Z,7.88
2022-11-22T08:38:42.429Z,7.97
2022-11-22T08:41:09.102Z,8.22
2022-11-22T08:43:35.998Z,7.74
2022-11-22T08:46:03.135Z,7.06
2022-11-22T08:48:30.769Z,6.93
2022-11-22T08:50:59.193Z,6.81
2022-11-22T08:53:26.385Z,6.60
2022-11-22T08:55:53.579Z,6.58
2022-11-22T08:58:22.865Z,6.74
2022-11-22T09:00:49.712Z,7.09
2022-11-22T09:03:16.407Z,6.54
2022-11-22T09:08:32.801Z,6.88
2022-11-22T09:11:04.188Z,7.01
2022-11-22T09:13:30.869Z,6.80
2022-11-22T09:16:05.396Z,6.92
2022-11-22T09:18:32.102Z,6.01
2022-11-22T09:20:59.591Z,6.42
2022-11-22T09:23:26.583Z,6.68
2022-11-22T09:26:00.286Z,6.72
2022-11-22T09:28:27.751Z,6.65
2022-11-22T09:31:01.690Z,6.72
2022-11-22T09:33:29.272Z,7.00
2022-11-22T09:36:00.525Z,6.83
2022-11-22T09:38:27.542Z,6.57
2022-11-22T09:40:54.208Z,7.41
2022-11-22T09:43:20.851Z,7.35
2022-11-22T09:45:54.799Z,7.20
2022-11-22T09:48:24.501Z,7.43
2022-11-22T09:50:54.370Z,7.23
2022-11-22T09:53:25.505Z,6.77
2022-11-22T09:55:54.203Z,7.10
2022-11-22T09:58:39.400Z,6.71
2022-11-22T10:01:12.059Z,7.11
2022-11-22T10:03:52.672Z,7.08
2022-11-22T10:06:32.316Z,6.91
2022-11-22T10:09:08.229Z,7.46
2022-11-22T10:11:55.141Z,7.43
2022-11-22T10:14:40.724Z,7.39
2022-11-22T10:17:20.000Z,7.17
2022-11-22T10:20:04.961Z,7.36
2022-11-22T10:22:32.861Z,7.53
2022-11-22T10:25:00.489Z,7.35
2022-11-22T10:27:32.057Z,7.25
2022-11-22T10:30:14.318Z,7.15
2022-11-22T10:32:45.430Z,7.08
2022-11-22T10:35:12.106Z,6.99
2022-11-22T10:37:39.375Z,7.04
2022-11-22T10:40:09.261Z,6.77
2022-11-22T10:42:54.858Z,7.16
2022-11-22T10:45:21.479Z,7.17
2022-11-22T10:47:57.896Z,7.23
2022-11-22T10:50:43.275Z,7.25
2022-11-22T10:53:19.130Z,7.09
2022-11-22T10:56:09.401Z,7.21
2022-11-22T10:58:42.358Z,7.16
2022-11-22T11:01:15.700Z,7.66
2022-11-22T11:03:44.516Z,7.48
2022-11-22T11:06:26.527Z,7.63
2022-11-22T11:11:54.979Z,7.58
2022-11-22T11:14:21.911Z,7.60
2022-11-22T11:16:49.430Z,7.51
2022-11-22T11:19:24.727Z,7.27
2022-11-22T11:21:58.673Z,7.63
2022-11-22T11:24:29.186Z,7.11
2022-11-22T11:27:11.859Z,7.24
2022-11-22T11:29:43.451Z,6.97
2022-11-22T11:32:12.645Z,6.91
2022-11-22T11:34:42.736Z,6.97
2022-11-22T11:37:17.441Z,7.01
2022-11-22T11:39:48.300Z,6.95
2022-11-22T11:42:31.731Z,7.08
2022-11-22T11:45:18.591Z,6.96
2022-11-22T11:47:45.649Z,7.01
2022-11-22T11:50:31.856Z,7.54
2022-11-22T11:53:07.059Z,7.18
2022-11-22T11:55:34.954Z,7.34
2022-11-22T11:58:03.773Z,7.08
2022-11-22T12:00:39.153Z,7.32
2022-11-22T12:03:07.608Z,7.42
2022-11-22T12:05:35.449Z,7.00
2022-11-22T12:08:02.381Z,6.95
2022-11-22T12:10:41.531Z,6.98
2022-11-22T12:13:28.100Z,6.68
2022-11-22T12:15:56.742Z,6.70
2022-11-22T12:18:39.336Z,6.57
2022-11-22T12:21:13.271Z,6.89
2022-11-22T12:23:50.709Z,6.89
2022-11-22T12:26:18.100Z,6.68
2022-11-22T12:28:44.982Z,6.78
2022-11-22T12:31:29.922Z,6.98
2022-11-22T12:33:59.090Z,7.38
2022-11-22T12:36:35.057Z,7.20
2022-11-22T12:39:03.148Z,7.73
2022-11-22T12:41:32.440Z,7.93
2022-11-22T12:44:03.810Z,8.30
2022-11-22T12:46:39.721Z,7.83
2022-11-22T12:49:24.652Z,8.05
2022-11-22T12:51:51.373Z,8.01
2022-11-22T12:54:21.946Z,7.60
2022-11-22T12:56:57.231Z,7.81
2022-11-22T12:59:36.500Z,7.55
2022-11-22T13:02:26.850Z,7.89
2022-11-22T13:05:01.981Z,7.74
2022-11-22T13:07:34.266Z,7.98
2022-11-22T13:10:09.594Z,8.22
2022-11-22T13:12:38.460Z,8.26
2022-11-22T13:15:05.448Z,8.16
2022-11-22T13:17:36.512Z,7.85
2022-11-22T13:20:06.421Z,7.87
2022-11-22T13:22:36.016Z,8.21
2022-11-22T13:25:16.811Z,7.91
2022-11-22T13:27:45.458Z,7.68
2022-11-22T13:30:20.377Z,7.83
2022-11-22T13:32:49.520Z,8.24
2022-11-22T13:35:16.170Z,7.89
2022-11-22T13:37:47.569Z,7.99
2022-11-22T13:40:17.601Z,8.17
2022-11-22T13:42:44.501Z,8.22
2022-11-22T13:45:20.895Z,8.57
2022-11-22T13:47:47.834Z,8.58
2022-11-22T13:50:33.417Z,8.74
2022-11-22T13:53:15.914Z,7.77
2022-11-22T13:55:43.117Z,7.80
2022-11-22T13:58:18.268Z,7.91
2022-11-22T14:00:45.133Z,7.62
2022-11-22T14:03:19.047Z,7.73
2022-11-22T14:05:50.475Z,8.14
2022-11-22T14:08:35.551Z,7.83
2022-11-22T14:11:02.249Z,7.67
2022-11-22T14:13:39.212Z,7.70
2022-11-22T14:16:12.001Z,7.96
2022-11-22T14:18:52.266Z,7.66
2022-11-22T14:21:37.902Z,7.59
2022-11-22T14:24:14.057Z,7.74
2022-11-22T14:26:59.231Z,7.55
2022-11-22T14:29:50.743Z,7.86
2022-11-22T14:32:21.815Z,7.60
2022-11-22T14:35:03.914Z,7.73
2022-11-22T14:37:34.402Z,7.68
2022-11-22T14:40:03.887Z,7.66
2022-11-22T14:42:47.723Z,8.31
2022-11-22T14:45:27.271Z,8.24
2022-11-22T14:47:54.069Z,7.60
2022-11-22T14:50:29.249Z,7.84
2022-11-22T14:52:57.660Z,7.55
2022-11-22T14:55:26.665Z,7.42
2022-11-22T14:58:04.498Z,7.46
2022-11-22T15:01:02.844Z,7.41
2022-11-22T15:03:48.439Z,7.95
2022-11-22T15:09:14.437Z,7.30
2022-11-22T15:09:53.287Z,7.74
2022-11-22T15:12:06.893Z,7.41
2022-11-22T15:14:52.705Z,7.41
2022-11-22T15:57:38.001Z,7.40
2022-11-22T16:00:19.265Z,7.69
2022-11-22T16:02:49.329Z,7.62
2022-11-22T16:06:06.705Z,7.35
2022-11-22T16:08:13.533Z,7.39
2022-11-22T16:10:43.009Z,7.34
2022-11-22T16:13:14.151Z,7.25
2022-11-22T16:15:41.138Z,7.39
2022-11-22T16:18:10.789Z,7.08
2022-11-22T16:20:41.388Z,7.41
2022-11-22T16:23:12.085Z,7.20
2022-11-22T16:25:39.891Z,6.90
2022-11-22T16:28:18.826Z,6.93
2022-11-22T16:30:47.428Z,7.19
2022-11-22T16:33:34.740Z,7.02
2022-11-22T16:36:20.832Z,6.94
2022-11-22T16:38:47.973Z,6.92
2022-11-22T16:41:36.434Z,6.88
2022-11-22T16:44:22.121Z,6.98
2022-11-22T16:46:49.888Z,7.23
2022-11-22T16:49:18.976Z,7.20
2022-11-22T16:51:46.898Z,7.18
2022-11-22T16:54:21.153Z,7.09
2022-11-22T16:56:50.141Z,6.94
2022-11-22T16:59:21.498Z,7.09
2022-11-22T17:01:48.516Z,7.11
2022-11-22T17:04:21.745Z,6.92
2022-11-22T17:06:49.018Z,7.04
2022-11-22T17:09:21.334Z,6.95
2022-11-22T17:11:48.137Z,6.69
2022-11-22T17:14:16.226Z,7.08
2022-11-22T17:16:43.392Z,6.95
2022-11-22T17:19:24.210Z,6.93
2022-11-22T17:21:57.135Z,7.12
2022-11-22T17:24:24.171Z,7.09
2022-11-22T17:26:50.955Z,7.01
2022-11-22T17:29:48.802Z,6.74
2022-11-22T17:32:05.188Z,6.80
2022-11-22T17:34:32.320Z,7.12
2022-11-22T17:36:59.282Z,7.11
2022-11-22T17:39:26.358Z,6.77
2022-11-22T17:41:53.049Z,6.51
2022-11-22T17:44:19.841Z,6.75
2022-11-22T17:46:47.492Z,6.99
2022-11-22T17:49:16.183Z,6.88
2022-11-22T17:51:43.747Z,7.10
2022-11-22T17:54:10.535Z,6.80
2022-11-22T17:56:39.200Z,6.59
2022-11-22T17:59:06.511Z,6.56
2022-11-22T18:01:33.329Z,6.60
2022-11-22T18:04:00.104Z,6.76
2022-11-22T18:06:27.277Z,6.76
2022-11-22T18:08:54.103Z,6.43
2022-11-22T18:11:21.087Z,6.44
2022-11-22T18:13:47.942Z,6.39
2022-11-22T18:16:18.748Z,6.75
2022-11-22T18:19:01.110Z,6.62
2022-11-22T18:21:29.790Z,6.60
2022-11-22T18:24:00.555Z,7.15
2022-11-22T18:26:43.121Z,6.81
2022-11-22T18:29:41.073Z,7.21
2022-11-22T18:31:57.572Z,6.65
2022-11-22T18:34:24.669Z,6.90
2022-11-22T18:36:57.561Z,6.95
2022-11-22T18:39:27.709Z,6.68
2022-11-22T18:41:55.752Z,6.82
2022-11-22T18:44:22.508Z,6.71
2022-11-22T18:46:49.523Z,6.52
2022-11-22T18:49:36.660Z,6.62
2022-11-22T18:52:04.985Z,6.41
2022-11-22T18:54:34.228Z,6.36
2022-11-22T18:57:01.628Z,6.45
2022-11-22T18:59:28.713Z,6.46
2022-11-22T19:01:55.957Z,6.33
2022-11-22T19:04:22.737Z,6.47
2022-11-22T19:06:49.553Z,6.76
2022-11-22T19:09:16.657Z,6.37
2022-11-22T19:11:43.487Z,6.26
2022-11-22T19:14:10.588Z,6.83
2022-11-22T19:16:42.224Z,6.66
2022-11-22T19:19:10.804Z,6.37
2022-11-22T19:21:37.535Z,6.84
2022-11-22T19:24:04.696Z,6.69
2022-11-22T19:26:31.684Z,6.43
2022-11-22T19:29:00.074Z,6.51
2022-11-22T19:31:29.611Z,6.64
2022-11-22T19:33:56.489Z,6.44
2022-11-22T19:36:44.110Z,6.78
2022-11-22T19:39:17.499Z,6.91
2022-11-22T19:41:44.865Z,6.50
2022-11-22T19:44:31.844Z,6.65
2022-11-22T19:46:58.648Z,6.62
2022-11-22T19:49:25.911Z,6.77
2022-11-22T19:51:52.641Z,6.74
2022-11-22T19:54:19.477Z,6.87
2022-11-22T19:56:46.644Z,6.64
2022-11-22T19:59:16.456Z,6.75
2022-11-22T20:01:43.273Z,7.05
2022-11-22T20:04:12.767Z,6.47
2022-11-22T20:06:40.330Z,6.81
2022-11-22T20:09:11.246Z,6.75
2022-11-22T20:11:38.453Z,6.80
2022-11-22T20:14:05.453Z,6.29
2022-11-22T20:16:35.087Z,6.59
2022-11-22T20:19:02.898Z,6.35
2022-11-22T20:21:31.622Z,6.54
2022-11-22T20:23:58.907Z,6.49
2022-11-22T20:26:25.768Z,6.34
2022-11-22T20:28:56.642Z,6.59
2022-11-22T20:31:24.057Z,6.53
2022-11-22T20:33:52.291Z,6.79
2022-11-22T20:36:19.298Z,6.22
2022-11-22T20:38:46.877Z,6.38
2022-11-22T20:41:14.816Z,6.71
2022-11-22T20:43:41.751Z,6.65
2022-11-22T20:46:10.337Z,6.64
2022-11-22T20:48:37.632Z,6.44
2022-11-22T20:51:06.017Z,6.80
2022-11-22T20:53:33.152Z,6.87
2022-11-22T20:55:59.997Z,6.65
2022-11-22T20:58:27.008Z,6.79
2022-11-22T21:00:54.159Z,6.86
2022-11-22T21:03:21.336Z,6.58
2022-11-22T21:05:52.445Z,6.85
2022-11-22T21:08:19.614Z,6.91
2022-11-22T21:10:47.065Z,6.92
2022-11-22T21:13:13.890Z,6.83
2022-11-22T21:15:41.941Z,6.77
2022-11-22T21:18:24.597Z,6.94
2022-11-22T21:20:54.460Z,6.44
2022-11-22T21:23:21.497Z,6.34
2022-11-22T21:26:08.095Z,6.36
2022-11-22T21:28:40.790Z,6.72
2022-11-22T21:31:09.805Z,6.80
2022-11-22T21:33:37.234Z,6.31
2022-11-22T21:36:24.034Z,6.60
2022-11-22T21:39:00.311Z,6.68
2022-11-22T21:41:47.484Z,6.59
2022-11-22T21:44:15.503Z,6.89
2022-11-22T21:46:44.038Z,7.16
2022-11-22T21:49:10.968Z,6.90
2022-11-22T21:51:37.806Z,6.89
2022-11-22T21:54:04.670Z,7.21
2022-11-22T21:56:31.973Z,6.72
2022-11-22T21:58:58.769Z,6.72
2022-11-22T22:01:26.446Z,7.15
2022-11-22T22:03:53.467Z,6.87
2022-11-22T22:06:20.388Z,7.07
2022-11-22T22:08:47.081Z,6.64
2022-11-22T22:11:13.951Z,6.40
2022-11-22T22:13:40.893Z,6.62
2022-11-22T22:16:08.518Z,6.64
2022-11-22T22:18:38.143Z,7.09
2022-11-22T22:21:06.161Z,6.81
2022-11-22T22:23:36.522Z,6.58
2022-11-22T22:26:04.727Z,6.73
2022-11-22T22:28:35.496Z,6.44
2022-11-22T22:31:08.393Z,6.52
2022-11-22T22:33:35.664Z,6.39
2022-11-22T22:36:05.577Z,6.68
2022-11-22T22:38:32.500Z,6.29
2022-11-22T22:41:00.537Z,6.32
2022-11-22T22:43:31.243Z,6.03
2022-11-22T22:46:06.229Z,6.38
2022-11-22T22:48:35.759Z,6.04
2022-11-22T22:51:11.545Z,6.08
2022-11-22T22:53:38.517Z,6.01
2022-11-22T22:56:05.487Z,6.16
2022-11-22T22:58:32.303Z,6.13
2022-11-22T23:01:06.490Z,6.10
2022-11-22T23:03:33.315Z,6.14
2022-11-22T23:06:03.940Z,5.98
2022-11-22T23:08:30.707Z,6.25
2022-11-22T23:11:02.438Z,6.27
2022-11-22T23:13:29.393Z,6.17
2022-11-22T23:15:58.889Z,6.24
2022-11-22T23:18:25.950Z,5.95
2022-11-22T23:20:52.688Z,6.33
2022-11-22T23:23:19.438Z,6.16
2022-11-22T23:25:46.161Z,6.05
2022-11-22T23:28:12.870Z,6.05
2022-11-22T23:30:39.620Z,5.97
2022-11-22T23:33:06.303Z,6.09
2022-11-22T23:35:36.091Z,6.20
2022-11-22T23:38:03.096Z,6.11
2022-11-22T23:40:31.174Z,6.16
2022-11-22T23:43:01.301Z,6.25
2022-11-22T23:45:27.932Z,6.14
2022-11-22T23:47:54.646Z,6.06
2022-11-22T23:50:21.362Z,6.09
2022-11-22T23:52:48.019Z,6.39
2022-11-22T23:55:14.903Z,6.18
2022-11-22T23:57:42.716Z,6.18
